Time;durP1;ratioP1;P1;durP2;ratioP2;P2;SDS_P1;SDS_P2;PMS_P1;PMS_P2;Temp;Humidity;BMP_temperature;BMP_pressure;BME280_temperature;BME280_humidity;BME280_pressure;Samples;Min_cycle;Max_cycle;Signal;HPM_P1;HPM_P2
2023/07/24 00:01:40;;;;;;;;;;;;;;;16.45;54.37;100957.38;5000165;28;1059;-49
2023/07/24 00:04:05;;;;;;;;;;;;;;;16.39;54.21;100957.34;4999589;28;1104;-46
2023/07/24 00:06:31;;;;;;;;;;;;;;;16.37;54.40;100954.06;4989535;28;1036;-47
2023/07/24 00:08:56;;;;;;;;;;;;;;;16.42;54.27;100948.59;4984521;28;1080;-45
2023/07/24 00:11:22;;;;;;;;;;;;;;;16.40;54.15;100947.22;4999656;28;1914;-48
2023/07/24 00:13:47;;;;;;;;;;;;;;;16.36;54.39;100948.84;4999849;28;1146;-46
2023/07/24 00:16:13;;;;;;;;;;;;;;;16.33;54.16;100941.97;4999546;28;1067;-42
2023/07/24 00:18:38;;;;;;;;;;;;;;;16.30;54.25;100937.03;4996091;28;1107;-47
2023/07/24 00:21:04;;;;;;;;;;;;;;;16.29;54.38;100940.84;4990958;28;1115;-44
2023/07/24 00:23:29;;;;;;;;;;;;;;;16.33;54.31;100935.66;4998581;28;1362;-47
2023/07/24 00:25:55;;;;;;;;;;;;;;;16.35;54.30;100944.44;4999763;28;1055;-46
2023/07/24 00:28:20;;;;;;;;;;;;;;;16.29;54.21;100940.84;4990619;28;1084;-47
2023/07/24 00:30:46;;;;;;;;;;;;;;;16.32;54.16;100945.78;5005542;28;1906;-49
2023/07/24 00:33:11;;;;;;;;;;;;;;;16.28;53.96;100939.19;4999475;28;1076;-43
2023/07/24 00:35:37;;;;;;;;;;;;;;;16.32;54.22;100945.78;4997790;28;1212;-46
2023/07/24 00:38:03;;;;;;;;;;;;;;;16.23;54.20;100939.19;4999263;28;1032;-44
2023/07/24 00:40:28;;;;;;;;;;;;;;;17.32;55.70;100946.63;4999279;28;1175;-45
2023/07/24 00:42:53;;;;;;;;;;;;;;;17.33;56.30;100939.19;4999473;28;1136;-48
2023/07/24 00:45:19;;;;;;;;;;;;;;;16.94;56.27;100935.03;4988153;28;1123;-46
2023/07/24 00:47:45;;;;;;;;;;;;;;;16.79;55.78;100938.56;4997001;28;1219;-41
2023/07/24 00:50:10;;;;;;;;;;;;;;;16.79;55.30;100940.47;4999486;28;1905;-44
2023/07/24 00:52:36;;;;;;;;;;;;;;;16.66;55.39;100931.66;4994564;28;1128;-49
2023/07/24 00:55:01;;;;;;;;;;;;;;;16.62;54.94;100933.28;5005672;28;1128;-46
2023/07/24 00:57:27;;;;;;;;;;;;;;;16.60;54.90;100940.97;4999096;28;1031;-44
2023/07/24 00:59:52;;;;;;;;;;;;;;;16.50;54.99;100939.00;4981640;28;1071;-47
2023/07/24 01:02:18;;;;;;;;;;;;;;;16.53;54.59;100935.72;5011939;28;1123;-46
2023/07/24 01:04:43;;;;;;;;;;;;;;;16.51;54.68;100934.31;4997262;28;1111;-46
2023/07/24 01:07:09;;;;;;;;;;;;;;;16.53;54.43;100937.66;4994608;28;1168;-44
2023/07/24 01:09:34;;;;;;;;;;;;;;;16.43;54.60;100930.19;4998675;28;1914;-44
2023/07/24 01:12:05;;;;;;;;;;;;;;;16.44;54.40;100948.31;4998410;28;1055;-44
2023/07/24 01:14:38;;;;;;;;;;;;;;;16.48;54.46;100930.22;5003411;28;1048;-44
2023/07/24 01:17:03;;;;;;;;;;;;;;;16.42;54.45;100932.13;4992681;28;1080;-48
2023/07/24 01:19:32;;;;;;;;;;;;;;;16.40;54.26;100923.31;4988625;28;1095;-47
2023/07/24 01:22:15;;;;;;;;;;;;;;;16.42;54.20;100934.88;4982798;28;1088;-46
2023/07/24 01:25:00;;;;;;;;;;;;;;;16.38;54.22;100921.94;4981574;28;1233;-48
2023/07/24 01:27:25;;;;;;;;;;;;;;;16.40;54.23;100931.56;5013729;28;1450;-45
2023/07/24 01:29:51;;;;;;;;;;;;;;;16.34;54.19;100927.16;4983094;28;1989;-45
2023/07/24 01:32:16;;;;;;;;;;;;;;;16.34;54.31;100918.94;4988100;28;1192;-45
2023/07/24 01:34:42;;;;;;;;;;;;;;;16.36;54.17;100933.19;4997953;28;1134;-47
2023/07/24 01:37:07;;;;;;;;;;;;;;;16.21;54.33;100930.38;4998250;28;1194;-49
2023/07/24 01:39:33;;;;;;;;;;;;;;;16.32;54.09;100926.59;5009448;28;1167;-45
2023/07/24 01:41:58;;;;;;;;;;;;;;;16.73;55.28;100934.13;5002587;28;871;-49
2023/07/24 01:44:24;;;;;;;;;;;;;;;17.63;56.17;100927.38;4983038;28;1127;-46
2023/07/24 01:46:49;;;;;;;;;;;;;;;17.10;56.27;100938.63;4979042;28;1076;-42
2023/07/24 01:49:15;;;;;;;;;;;;;;;16.92;56.15;100934.50;4991612;28;1915;-43
2023/07/24 01:51:43;;;;;;;;;;;;;;;16.75;55.44;100927.28;4986067;28;1184;-44
2023/07/24 01:54:09;;;;;;;;;;;;;;;16.74;55.25;100927.53;4982322;28;853;-48
2023/07/24 01:56:35;;;;;;;;;;;;;;;16.64;54.99;100914.63;4985172;28;1305;-45
2023/07/24 01:59:01;;;;;;;;;;;;;;;16.61;54.85;100926.16;4996173;28;1160;-48
2023/07/24 02:01:26;;;;;;;;;;;;;;;16.56;54.76;100929.72;4996698;28;1131;-45
2023/07/24 02:03:52;;;;;;;;;;;;;;;16.60;54.65;100935.47;4995954;28;1227;-46
2023/07/24 02:06:17;;;;;;;;;;;;;;;16.57;54.47;100936.03;4997959;28;889;-45
2023/07/24 02:08:48;;;;;;;;;;;;;;;16.54;54.47;100934.63;4997651;28;1159;-49
2023/07/24 02:11:15;;;;;;;;;;;;;;;16.46;54.41;100934.34;5002435;28;1910;-45
2023/07/24 02:13:43;;;;;;;;;;;;;;;16.52;54.28;100938.72;4999773;28;1302;-44
2023/07/24 02:16:08;;;;;;;;;;;;;;;16.49;54.27;100944.78;4997428;28;1092;-45
2023/07/24 02:18:34;;;;;;;;;;;;;;;16.39;54.30;100953.78;4981605;28;907;-44
2023/07/24 02:21:00;;;;;;;;;;;;;;;16.39;54.33;100951.84;4986964;28;1117;-45
2023/07/24 02:23:25;;;;;;;;;;;;;;;16.39;54.32;100965.56;4997487;28;1036;-46
2023/07/24 02:25:52;;;;;;;;;;;;;;;16.40;54.10;100959.00;4996400;28;1669;-48
2023/07/24 02:28:18;;;;;;;;;;;;;;;16.41;54.07;100959.81;4996998;28;1064;-46
2023/07/24 02:30:44;;;;;;;;;;;;;;;16.37;54.24;100954.06;4987697;28;1906;-50
2023/07/24 02:33:09;;;;;;;;;;;;;;;16.33;54.18;100958.44;4982017;28;1115;-48
2023/07/24 02:35:38;;;;;;;;;;;;;;;16.29;54.16;100960.06;4977759;28;1060;-47
2023/07/24 02:38:04;;;;;;;;;;;;;;;16.34;54.08;100960.09;4994572;28;1172;-46
2023/07/24 02:40:30;;;;;;;;;;;;;;;16.28;53.98;100952.91;4996813;28;1207;-42
2023/07/24 02:42:56;;;;;;;;;;;;;;;16.62;55.16;100948.94;4993438;28;1048;-43
2023/07/24 02:45:21;;;;;;;;;;;;;;;17.53;56.35;100946.59;4978373;28;1175;-49
2023/07/24 02:47:47;;;;;;;;;;;;;;;17.09;56.08;100945.22;5005607;28;1223;-48
2023/07/24 02:50:13;;;;;;;;;;;;;;;16.86;55.88;100950.09;4987533;28;1902;-45
2023/07/24 02:52:38;;;;;;;;;;;;;;;16.76;55.72;100939.91;4997008;28;1214;-43
2023/07/24 02:55:04;;;;;;;;;;;;;;;16.66;55.39;100947.28;5002329;28;1159;-45
2023/07/24 02:57:29;;;;;;;;;;;;;;;16.62;54.93;100941.53;4997055;28;1095;-47
2023/07/24 02:59:55;;;;;;;;;;;;;;;16.58;54.81;100927.50;4995652;28;1366;-48
2023/07/24 03:02:20;;;;;;;;;;;;;;;16.56;54.85;100939.84;4993529;28;1124;-47
2023/07/24 03:04:46;;;;;;;;;;;;;;;16.49;54.62;100937.34;4986414;28;1334;-47
2023/07/24 03:07:12;;;;;;;;;;;;;;;16.50;54.47;100935.44;4996892;28;1135;-43
2023/07/24 03:09:37;;;;;;;;;;;;;;;16.43;54.30;100936.50;5005853;28;1969;-45
2023/07/24 03:12:03;;;;;;;;;;;;;;;16.42;54.22;100931.28;5000313;28;1134;-47
2023/07/24 03:14:28;;;;;;;;;;;;;;;16.40;54.30;100915.09;5001050;28;1083;-47
2023/07/24 03:16:54;;;;;;;;;;;;;;;16.34;54.36;100923.56;5000727;28;1144;-45
2023/07/24 03:19:20;;;;;;;;;;;;;;;16.38;54.12;100931.03;5001041;28;1124;-43
2023/07/24 03:21:45;;;;;;;;;;;;;;;16.34;54.41;100932.66;4983895;28;1158;-42
2023/07/24 03:24:11;;;;;;;;;;;;;;;16.39;53.97;100927.16;4991140;28;1128;-47
2023/07/24 03:26:37;;;;;;;;;;;;;;;16.37;54.22;100942.25;5000245;28;1167;-41
2023/07/24 03:29:02;;;;;;;;;;;;;;;16.29;54.39;100929.06;5000384;28;1079;-42
2023/07/24 03:31:28;;;;;;;;;;;;;;;16.25;54.32;100924.06;5000171;28;1918;-46
2023/07/24 03:33:53;;;;;;;;;;;;;;;16.32;54.02;100928.50;5000482;28;1127;-44
2023/07/24 03:36:19;;;;;;;;;;;;;;;16.35;53.98;100927.97;5000238;28;1114;-45
2023/07/24 03:38:44;;;;;;;;;;;;;;;16.18;54.28;100925.44;4995735;28;992;-43
2023/07/24 03:41:10;;;;;;;;;;;;;;;16.21;54.20;100935.88;4992689;28;1122;-42
2023/07/24 03:43:36;;;;;;;;;;;;;;;16.20;54.12;100936.94;4981139;28;1123;-42
2023/07/24 03:46:01;;;;;;;;;;;;;;;16.17;54.15;100935.59;5007132;28;1249;-44
2023/07/24 03:48:27;;;;;;;;;;;;;;;16.22;54.04;100943.00;5000103;28;1120;-46
2023/07/24 03:50:59;;;;;;;;;;;;;;;16.18;54.26;100939.16;5000215;28;1979;-45
2023/07/24 03:53:25;;;;;;;;;;;;;;;16.23;54.10;100944.66;4999630;28;1112;-46
2023/07/24 03:55:50;;;;;;;;;;;;;;;16.60;55.39;100952.75;4999998;28;1008;-43
2023/07/24 03:58:16;;;;;;;;;;;;;;;17.51;56.22;100959.81;5000213;28;1210;-44
2023/07/24 04:00:41;;;;;;;;;;;;;;;17.00;57.47;100955.09;4999972;28;1024;-41
2023/07/24 04:03:07;;;;;;;;;;;;;;;16.82;56.37;100959.16;5013767;28;1223;-47
2023/07/24 04:05:34;;;;;;;;;;;;;;;16.76;55.89;100975.63;4999528;28;1051;-43
2023/07/24 04:07:59;;;;;;;;;;;;;;;16.62;55.76;100969.00;4990921;28;1118;-44
2023/07/24 04:10:25;;;;;;;;;;;;;;;16.59;55.50;100961.25;4999692;28;1922;-43
2023/07/24 04:12:51;;;;;;;;;;;;;;;16.61;55.35;100967.34;4999784;28;1138;-44
2023/07/24 04:15:16;;;;;;;;;;;;;;;16.50;55.04;100971.13;4999126;28;1142;-46
2023/07/24 04:17:42;;;;;;;;;;;;;;;16.51;55.14;100978.25;4999670;28;1182;-45
2023/07/24 04:20:08;;;;;;;;;;;;;;;16.43;54.98;100979.59;4997947;28;1016;-44
2023/07/24 04:22:33;;;;;;;;;;;;;;;16.50;54.78;100982.09;4999061;28;1060;-46
2023/07/24 04:24:59;;;;;;;;;;;;;;;16.50;54.61;100973.88;4999531;28;1056;-47
2023/07/24 04:27:24;;;;;;;;;;;;;;;16.46;54.55;100976.31;4999065;28;1124;-45
2023/07/24 04:29:50;;;;;;;;;;;;;;;16.34;54.61;100968.31;4986932;28;1906;-45
2023/07/24 04:32:15;;;;;;;;;;;;;;;16.42;54.58;100976.03;4987898;28;1064;-47
2023/07/24 04:34:41;;;;;;;;;;;;;;;16.36;54.34;100977.09;4997660;28;1093;-46
2023/07/24 04:37:06;;;;;;;;;;;;;;;16.33;54.43;100985.06;4999355;28;1187;-43
2023/07/24 04:39:33;;;;;;;;;;;;;;;16.32;54.63;100977.91;4999501;28;1066;-47
2023/07/24 04:41:59;;;;;;;;;;;;;;;16.32;54.66;100978.72;4998904;28;1215;-47
2023/07/24 04:44:24;;;;;;;;;;;;;;;16.30;54.36;100975.44;4994023;28;1039;-46
2023/07/24 04:46:50;;;;;;;;;;;;;;;16.32;54.42;100980.66;4991258;28;1152;-45
2023/07/24 04:49:15;;;;;;;;;;;;;;;16.24;54.49;100977.31;4999126;28;1135;-40
2023/07/24 04:51:41;;;;;;;;;;;;;;;16.97;54.76;100977.63;4998978;28;1905;-44
2023/07/24 04:54:07;;;;;;;;;;;;;;;16.24;54.54;100965.50;4993955;28;1156;-41
2023/07/24 04:56:32;;;;;;;;;;;;;;;16.22;52.75;100975.94;4990943;28;1109;-45
2023/07/24 04:58:58;;;;;;;;;;;;;;;16.09;51.75;100969.00;4981434;28;1115;-44
2023/07/24 05:01:23;;;;;;;;;;;;;;;16.09;51.11;100971.75;4979673;28;1076;-44
2023/07/24 05:03:48;;;;;;;;;;;;;;;16.10;50.36;100978.88;4997722;28;1065;-47
2023/07/24 05:06:14;;;;;;;;;;;;;;;16.05;50.11;100984.34;4994294;28;1060;-44
2023/07/24 05:08:39;;;;;;;;;;;;;;;16.86;51.70;100979.50;4996725;28;1250;-48
2023/07/24 05:11:05;;;;;;;;;;;;;;;16.53;51.49;100987.06;4987420;28;1901;-45
2023/07/24 05:13:30;;;;;;;;;;;;;;;16.38;50.64;100994.13;4985906;28;1127;-47
2023/07/24 05:15:56;;;;;;;;;;;;;;;16.37;49.89;100992.47;4998213;28;1063;-48
2023/07/24 05:18:21;;;;;;;;;;;;;;;16.20;49.46;100980.84;4990473;28;1024;-46
2023/07/24 05:20:47;;;;;;;;;;;;;;;16.33;48.90;100985.88;4997761;28;1099;-47
2023/07/24 05:23:13;;;;;;;;;;;;;;;16.92;50.84;100987.50;4998742;28;1063;-43
2023/07/24 05:25:38;;;;;;;;;;;;;;;16.63;50.40;100989.84;4998386;28;1142;-47
2023/07/24 05:28:04;;;;;;;;;;;;;;;16.49;50.00;100986.75;4998881;28;1087;-45
2023/07/24 05:30:29;;;;;;;;;;;;;;;16.59;49.01;100983.22;4992438;28;1910;-44
2023/07/24 05:32:55;;;;;;;;;;;;;;;16.52;48.94;100986.25;4979117;28;1103;-43
2023/07/24 05:35:20;;;;;;;;;;;;;;;16.51;48.43;100981.00;4996993;28;1085;-47
2023/07/24 05:37:46;;;;;;;;;;;;;;;16.46;48.21;100967.28;4986298;28;1084;-45
2023/07/24 05:40:11;;;;;;;;;;;;;;;16.54;47.89;100970.31;4983767;28;1017;-45
2023/07/24 05:42:41;;;;;;;;;;;;;;;16.55;47.96;100971.97;4993409;28;1060;-44
2023/07/24 05:45:07;;;;;;;;;;;;;;;16.54;47.75;100980.47;4992314;28;1135;-42
2023/07/24 05:47:33;;;;;;;;;;;;;;;16.52;47.83;100974.41;4979564;28;1127;-43
2023/07/24 05:49:58;;;;;;;;;;;;;;;16.49;47.65;100974.97;4997589;28;1902;-45
2023/07/24 05:52:23;;;;;;;;;;;;;;;16.52;47.44;100980.75;4984770;28;1135;-44
2023/07/24 05:54:49;;;;;;;;;;;;;;;16.45;47.79;100982.88;4985959;28;834;-43
2023/07/24 05:57:14;;;;;;;;;;;;;;;16.60;47.21;100969.22;4997719;28;1119;-45
2023/07/24 05:59:40;;;;;;;;;;;;;;;16.53;47.42;100956.88;4997974;28;1092;-46
2023/07/24 06:02:07;;;;;;;;;;;;;;;16.52;47.31;100967.03;4997834;28;1144;-46
2023/07/24 06:04:32;;;;;;;;;;;;;;;16.56;47.21;100961.81;4997754;28;1107;-48
2023/07/24 06:06:58;;;;;;;;;;;;;;;16.61;46.95;100970.06;4993616;28;1044;-48
2023/07/24 06:09:23;;;;;;;;;;;;;;;16.58;46.90;100960.44;4989863;28;1910;-45
2023/07/24 06:11:49;;;;;;;;;;;;;;;16.56;47.18;100961.81;4979374;28;1092;-44
2023/07/24 06:14:14;;;;;;;;;;;;;;;16.56;47.01;100961.81;4997643;28;1060;-41
2023/07/24 06:16:40;;;;;;;;;;;;;;;16.60;46.98;100958.25;4984205;28;1131;-48
2023/07/24 06:19:05;;;;;;;;;;;;;;;16.55;47.30;100954.66;4997499;28;856;-44
2023/07/24 06:21:31;;;;;;;;;;;;;;;16.56;47.09;100956.31;4997662;28;1055;-44
2023/07/24 06:23:56;;;;;;;;;;;;;;;16.62;47.07;100949.78;4997474;28;972;-43
2023/07/24 06:26:22;;;;;;;;;;;;;;;16.64;46.72;100955.81;4996967;28;1123;-45
2023/07/24 06:28:47;;;;;;;;;;;;;;;16.58;46.93;100959.63;4984718;28;1013;-43
2023/07/24 06:31:13;;;;;;;;;;;;;;;16.58;46.89;100954.16;4992998;28;1977;-43
2023/07/24 06:33:38;;;;;;;;;;;;;;;16.63;47.04;100954.16;4997482;28;1148;-47
2023/07/24 06:36:04;;;;;;;;;;;;;;;16.63;46.86;100948.66;4983979;28;1052;-45
2023/07/24 06:38:29;;;;;;;;;;;;;;;16.62;47.12;100954.41;5012291;28;1152;-45
2023/07/24 06:40:55;;;;;;;;;;;;;;;16.65;46.79;100951.97;4997461;28;1193;-44
2023/07/24 06:43:21;;;;;;;;;;;;;;;16.71;46.82;100948.13;4996592;28;904;-46
2023/07/24 06:45:46;;;;;;;;;;;;;;;16.72;46.70;100944.28;4997008;28;1168;-44
2023/07/24 06:48:12;;;;;;;;;;;;;;;16.67;46.83;100947.03;4996915;28;1079;-41
2023/07/24 06:50:37;;;;;;;;;;;;;;;16.73;46.72;100940.47;4996778;28;1911;-46
2023/07/24 06:53:02;;;;;;;;;;;;;;;16.71;46.89;100948.13;4996837;28;1055;-45
2023/07/24 06:55:28;;;;;;;;;;;;;;;16.73;46.61;100945.13;4996664;28;1107;-45
2023/07/24 06:57:53;;;;;;;;;;;;;;;16.69;46.96;100942.09;4994159;28;1256;-46
2023/07/24 07:00:19;;;;;;;;;;;;;;;16.66;46.80;100937.16;4984788;28;1127;-39
2023/07/24 07:02:45;;;;;;;;;;;;;;;16.70;46.91;100935.50;5011255;28;1138;-43
2023/07/24 07:05:10;;;;;;;;;;;;;;;16.66;46.73;100944.53;4993351;28;1232;-44
2023/07/24 07:07:36;;;;;;;;;;;;;;;16.70;46.99;100935.50;4996158;28;1012;-47
2023/07/24 07:10:01;;;;;;;;;;;;;;;16.72;47.15;100927.81;4995537;28;1976;-47
2023/07/24 07:12:27;;;;;;;;;;;;;;;16.73;46.92;100934.97;4996409;28;1012;-44
2023/07/24 07:14:52;;;;;;;;;;;;;;;16.80;46.95;100933.88;4996648;28;1020;-46
2023/07/24 07:17:18;;;;;;;;;;;;;;;16.87;46.50;100918.81;4996532;28;1136;-45
2023/07/24 07:19:43;;;;;;;;;;;;;;;16.82;46.53;100939.94;4996088;28;1031;-44
2023/07/24 07:22:09;;;;;;;;;;;;;;;16.83;46.76;100934.16;4996332;28;1032;-44
2023/07/24 07:24:34;;;;;;;;;;;;;;;16.84;46.79;100932.25;4996167;28;1107;-43
2023/07/24 07:27:00;;;;;;;;;;;;;;;16.82;46.70;100938.00;4996656;28;1107;-46
2023/07/24 07:29:25;;;;;;;;;;;;;;;16.74;47.14;100933.03;4996371;28;2010;-44
2023/07/24 07:31:51;;;;;;;;;;;;;;;16.72;46.98;100930.56;4990783;28;945;-46
2023/07/24 07:34:16;;;;;;;;;;;;;;;16.86;46.64;100913.59;4989059;28;1132;-41
2023/07/24 07:36:42;;;;;;;;;;;;;;;16.80;46.63;100912.72;4982923;28;1049;-45
2023/07/24 07:39:07;;;;;;;;;;;;;;;16.92;46.51;100912.50;4996899;28;1131;-45
2023/07/24 07:41:33;;;;;;;;;;;;;;;16.83;46.64;100908.63;4983408;28;1095;-46
2023/07/24 07:43:58;;;;;;;;;;;;;;;16.85;46.66;100909.19;4995450;28;1060;-47
2023/07/24 07:46:24;;;;;;;;;;;;;;;16.95;46.38;100911.97;4996378;28;1107;-45
2023/07/24 07:48:49;;;;;;;;;;;;;;;16.89;46.53;100896.59;4995269;28;1320;-45
2023/07/24 07:51:15;;;;;;;;;;;;;;;16.90;46.26;100895.47;4984854;28;2012;-48
2023/07/24 07:53:40;;;;;;;;;;;;;;;16.90;46.68;100892.72;4988116;28;1056;-44
2023/07/24 07:56:06;;;;;;;;;;;;;;;16.95;46.33;100889.19;4994681;28;1060;-47
2023/07/24 07:58:32;;;;;;;;;;;;;;;16.88;46.53;100875.66;4980739;28;1068;-43
2023/07/24 08:00:57;;;;;;;;;;;;;;;16.89;46.77;100877.34;4980345;28;1072;-45
2023/07/24 08:03:23;;;;;;;;;;;;;;;16.92;46.83;100890.53;4980395;28;1068;-47
2023/07/24 08:05:48;;;;;;;;;;;;;;;16.92;46.77;100887.78;4997132;28;1021;-45
2023/07/24 08:08:14;;;;;;;;;;;;;;;16.92;46.94;100894.09;4997926;28;1130;-45
2023/07/24 08:10:39;;;;;;;;;;;;;;;16.91;46.88;100892.47;4999223;28;2003;-47
2023/07/24 08:13:05;;;;;;;;;;;;;;;16.98;46.73;100889.44;5000011;28;1167;-45
2023/07/24 08:15:34;;;;;;;;;;;;;;;17.00;46.65;100887.25;4998438;28;1040;-44
2023/07/24 08:17:59;;;;;;;;;;;;;;;16.95;47.05;100894.66;4999735;28;1083;-44
2023/07/24 08:20:25;;;;;;;;;;;;;;;17.01;46.73;100897.16;4999266;28;1052;-47
2023/07/24 08:22:50;;;;;;;;;;;;;;;17.03;46.74;100883.94;4999365;28;1242;-41
2023/07/24 08:25:16;;;;;;;;;;;;;;;17.12;46.28;100891.66;4996399;28;1256;-45
2023/07/24 08:27:42;;;;;;;;;;;;;;;16.92;47.00;100890.53;4997053;28;1308;-43
2023/07/24 08:30:08;;;;;;;;;;;;;;;16.99;46.94;100880.09;4998594;28;1910;-44
2023/07/24 08:32:33;;;;;;;;;;;;;;;17.01;46.85;100875.19;4996962;28;1039;-46
2023/07/24 08:34:59;;;;;;;;;;;;;;;16.94;46.96;100874.59;4988737;28;1175;-46
2023/07/24 08:37:24;;;;;;;;;;;;;;;16.95;46.82;100876.25;4992923;28;1056;-48
2023/07/24 08:39:50;;;;;;;;;;;;;;;17.02;46.95;100874.06;4992193;28;1196;-43
2023/07/24 08:42:15;;;;;;;;;;;;;;;16.99;47.04;100866.38;4999036;28;1120;-47
2023/07/24 08:44:41;;;;;;;;;;;;;;;17.01;47.05;100861.44;4997827;28;1375;-45
2023/07/24 08:47:09;;;;;;;;;;;;;;;16.98;46.92;100852.91;4995843;28;1430;-45
2023/07/24 08:49:35;;;;;;;;;;;;;;;17.10;46.98;100864.44;4998753;28;1902;-46
2023/07/24 08:52:00;;;;;;;;;;;;;;;17.10;46.70;100842.47;4997231;28;1056;-43
2023/07/24 08:54:26;;;;;;;;;;;;;;;17.02;46.77;100843.84;4998518;28;1351;-45
2023/07/24 08:56:52;;;;;;;;;;;;;;;17.01;46.77;100853.19;4998375;28;1337;-45
2023/07/24 08:59:17;;;;;;;;;;;;;;;17.06;46.93;100855.91;4998580;28;1254;-47
2023/07/24 09:01:43;;;;;;;;;;;;;;;17.06;46.94;100860.59;4998290;28;1516;-46
2023/07/24 09:04:08;;;;;;;;;;;;;;;17.09;46.80;100849.88;4998489;28;1270;-45
2023/07/24 09:06:34;;;;;;;;;;;;;;;17.03;47.10;100863.91;5000677;28;1301;-46
2023/07/24 09:08:59;;;;;;;;;;;;;;;17.08;46.95;100856.50;4997894;28;1238;-44
2023/07/24 09:11:25;;;;;;;;;;;;;;;17.01;47.06;100858.69;4997811;28;1914;-47
2023/07/24 09:13:50;;;;;;;;;;;;;;;17.15;46.76;100847.94;4997265;28;1356;-45
2023/07/24 09:16:25;;;;;;;;;;;;;;;17.06;46.82;100858.66;4994746;28;1434;-46
2023/07/24 09:18:51;;;;;;;;;;;;;;;17.05;47.16;100839.72;4997238;28;1297;-43
2023/07/24 09:21:26;;;;;;;;;;;;;;;17.14;46.91;100850.97;4997981;28;1418;-48
2023/07/24 09:23:52;;;;;;;;;;;;;;;17.17;47.13;100851.25;5012233;28;1211;-48
2023/07/24 09:26:17;;;;;;;;;;;;;;;17.17;46.98;100859.50;4996732;28;1316;-47
2023/07/24 09:28:50;;;;;;;;;;;;;;;17.17;46.95;100855.94;4997305;28;1410;-46
2023/07/24 09:31:16;;;;;;;;;;;;;;;17.22;46.87;100864.16;5009484;28;1926;-43
2023/07/24 09:33:43;;;;;;;;;;;;;;;17.12;47.17;100850.44;4997972;28;1231;-46
2023/07/24 09:36:09;;;;;;;;;;;;;;;17.21;47.11;100848.78;4997385;28;1506;-47
2023/07/24 09:38:37;;;;;;;;;;;;;;;17.21;47.17;100851.53;4997121;28;1387;-45
2023/07/24 09:41:03;;;;;;;;;;;;;;;17.22;46.95;100842.19;4996790;28;1217;-45
2023/07/24 09:43:29;;;;;;;;;;;;;;;17.27;47.05;100847.69;4997213;28;1202;-48
2023/07/24 09:45:55;;;;;;;;;;;;;;;17.26;46.92;100843.28;4997316;28;1126;-46
2023/07/24 09:48:21;;;;;;;;;;;;;;;17.24;47.03;100850.97;4984718;28;1443;-44
2023/07/24 09:50:48;;;;;;;;;;;;;;;17.20;47.31;100833.41;4994829;28;1903;-46
2023/07/24 09:53:21;;;;;;;;;;;;;;;17.24;47.09;100826.25;4996688;28;846;-47
2023/07/24 09:55:49;;;;;;;;;;;;;;;17.29;47.22;100831.72;4996246;28;1293;-44
2023/07/24 09:58:15;;;;;;;;;;;;;;;17.33;46.94;100826.50;4996326;28;1084;-44
2023/07/24 10:00:41;;;;;;;;;;;;;;;17.30;46.96;100827.06;4996399;28;1229;-45
2023/07/24 10:03:06;;;;;;;;;;;;;;;17.22;47.34;100823.78;4987148;28;1005;-44
2023/07/24 10:05:32;;;;;;;;;;;;;;;17.30;46.98;100827.88;4994457;28;1113;-43
2023/07/24 10:07:57;;;;;;;;;;;;;;;17.30;47.06;100816.06;4997442;28;1156;-46
2023/07/24 10:10:23;;;;;;;;;;;;;;;17.34;47.05;100817.16;4997517;28;1983;-47
2023/07/24 10:12:48;;;;;;;;;;;;;;;17.25;47.17;100814.97;4997694;28;1107;-45
2023/07/24 10:15:14;;;;;;;;;;;;;;;17.34;47.17;100814.41;4992295;28;1331;-44
2023/07/24 10:17:40;;;;;;;;;;;;;;;17.38;47.09;100810.84;4985243;28;1131;-49
2023/07/24 10:20:06;;;;;;;;;;;;;;;17.36;47.12;100806.72;4996672;28;1167;-46
2023/07/24 10:22:31;;;;;;;;;;;;;;;17.35;47.11;100805.91;4988442;28;1029;-46
2023/07/24 10:24:57;;;;;;;;;;;;;;;17.30;47.61;100797.66;5001615;28;1207;-46
2023/07/24 10:27:23;;;;;;;;;;;;;;;17.33;47.64;100802.59;4977611;28;1154;-45
2023/07/24 10:29:57;;;;;;;;;;;;;;;17.45;47.14;100807.78;4993146;28;1906;-48
2023/07/24 10:32:23;;;;;;;;;;;;;;;17.42;47.27;100809.19;5002697;28;1063;-42
2023/07/24 10:35:08;;;;;;;;;;;;;;;17.42;47.05;100798.19;5009090;28;1126;-47
2023/07/24 10:37:34;;;;;;;;;;;;;;;17.48;47.18;100796.25;4990045;28;1117;-44
2023/07/24 10:40:00;;;;;;;;;;;;;;;17.48;47.19;100789.94;4978632;28;1076;-45
2023/07/24 10:42:25;;;;;;;;;;;;;;;17.50;47.31;100795.94;4989576;28;1056;-44
2023/07/24 10:45:01;;;;;;;;;;;;;;;17.47;47.02;100789.09;4996592;28;1226;-47
2023/07/24 10:47:27;;;;;;;;;;;;;;;17.49;47.15;100780.56;4997070;28;1214;-45
2023/07/24 10:49:52;;;;;;;;;;;;;;;17.39;47.22;100782.25;4996867;28;1988;-47
2023/07/24 10:52:18;;;;;;;;;;;;;;;17.51;47.20;100778.38;4996918;28;1206;-42
2023/07/24 10:54:43;;;;;;;;;;;;;;;17.40;47.13;100778.41;4979718;28;1262;-46
2023/07/24 10:57:10;;;;;;;;;;;;;;;17.45;47.37;100764.63;4994420;28;1036;-46
2023/07/24 10:59:38;;;;;;;;;;;;;;;17.50;47.33;100773.97;4984625;28;1164;-47
2023/07/24 11:02:04;;;;;;;;;;;;;;;17.47;47.32;100769.03;4996895;28;1109;-47
2023/07/24 11:04:29;;;;;;;;;;;;;;;17.48;47.32;100767.94;4996836;28;1096;-46
2023/07/24 11:06:57;;;;;;;;;;;;;;;17.56;47.10;100756.38;4995455;28;1072;-44
2023/07/24 11:09:22;;;;;;;;;;;;;;;17.56;47.13;100759.13;4996084;28;1167;-43
2023/07/24 11:11:48;;;;;;;;;;;;;;;17.49;47.25;100769.56;4994737;28;1914;-48
2023/07/24 11:14:14;;;;;;;;;;;;;;;17.39;47.37;100763.00;4994724;28;1459;-47
2023/07/24 11:16:48;;;;;;;;;;;;;;;17.43;47.26;100769.59;4996310;28;1466;-45
2023/07/24 11:19:13;;;;;;;;;;;;;;;17.57;46.97;100763.47;4996531;28;1186;-45
2023/07/24 11:21:39;;;;;;;;;;;;;;;17.52;46.84;100756.09;4994849;28;1427;-44
2023/07/24 11:24:06;;;;;;;;;;;;;;;17.50;47.15;100757.47;5011313;28;1447;-42
2023/07/24 11:26:31;;;;;;;;;;;;;;;17.41;47.28;100757.22;4996676;28;1415;-47
2023/07/24 11:28:57;;;;;;;;;;;;;;;17.52;47.05;100764.34;4997107;28;1234;-46
2023/07/24 11:31:22;;;;;;;;;;;;;;;17.51;46.97;100759.94;4999611;28;1902;-45
2023/07/24 11:33:48;;;;;;;;;;;;;;;17.42;47.08;100748.69;4997792;28;1348;-45
2023/07/24 11:36:14;;;;;;;;;;;;;;;17.47;47.17;100741.53;5000140;28;1126;-45
2023/07/24 11:38:39;;;;;;;;;;;;;;;17.49;47.06;100742.06;4999778;28;1032;-47
2023/07/24 11:41:05;;;;;;;;;;;;;;;17.54;46.95;100753.88;4981132;28;1060;-47
2023/07/24 11:43:30;;;;;;;;;;;;;;;17.41;47.34;100752.53;4988491;28;1222;-48
2023/07/24 11:45:56;;;;;;;;;;;;;;;17.42;47.29;100743.19;4999848;28;1088;-47
2023/07/24 11:48:23;;;;;;;;;;;;;;;17.47;47.09;100734.09;4999501;28;1024;-43
2023/07/24 11:50:49;;;;;;;;;;;;;;;17.44;47.06;100735.47;4999310;28;1971;-46
2023/07/24 11:53:22;;;;;;;;;;;;;;;17.48;47.32;100741.25;5000297;28;1067;-42
2023/07/24 11:55:47;;;;;;;;;;;;;;;17.58;46.84;100732.97;5000009;28;1088;-46
2023/07/24 11:58:14;;;;;;;;;;;;;;;17.63;46.85;100732.13;5002515;28;896;-49
2023/07/24 12:00:39;;;;;;;;;;;;;;;17.49;47.15;100736.56;4999886;28;1186;-48
2023/07/24 12:03:05;;;;;;;;;;;;;;;17.55;46.79;100724.47;5000726;28;1203;-44
2023/07/24 12:05:37;;;;;;;;;;;;;;;17.51;47.08;100720.63;4999047;28;1070;-46
2023/07/24 12:08:02;;;;;;;;;;;;;;;17.57;47.16;100722.25;4989331;28;1191;-46
2023/07/24 12:10:28;;;;;;;;;;;;;;;17.43;47.27;100728.38;4999771;28;1918;-42
2023/07/24 12:12:54;;;;;;;;;;;;;;;17.47;47.32;100716.81;5000196;28;1159;-49
2023/07/24 12:15:19;;;;;;;;;;;;;;;17.49;47.24;100722.81;4999506;28;1119;-48
2023/07/24 12:17:45;;;;;;;;;;;;;;;17.47;47.12;100716.81;4998875;28;1437;-49
2023/07/24 12:20:11;;;;;;;;;;;;;;;17.52;46.94;100719.53;4998901;28;1184;-44
2023/07/24 12:22:37;;;;;;;;;;;;;;;17.54;47.06;100718.13;4999268;28;1296;-43
2023/07/24 12:25:03;;;;;;;;;;;;;;;17.49;47.07;100715.41;4997808;28;1505;-49
2023/07/24 12:27:28;;;;;;;;;;;;;;;17.55;47.01;100713.47;4998362;28;1444;-46
2023/07/24 12:29:54;;;;;;;;;;;;;;;17.53;46.81;100712.91;4998830;28;1899;-46
2023/07/24 12:32:20;;;;;;;;;;;;;;;17.53;46.95;100713.75;4998509;28;1223;-45
2023/07/24 12:34:46;;;;;;;;;;;;;;;17.55;46.78;100708.78;4998883;28;1423;-46
2023/07/24 12:37:12;;;;;;;;;;;;;;;17.54;46.87;100706.31;4998823;28;1108;-47
2023/07/24 12:39:37;;;;;;;;;;;;;;;17.56;46.72;100709.63;4998686;28;1332;-48
2023/07/24 12:42:03;;;;;;;;;;;;;;;17.62;46.88;100703.78;4998464;28;1183;-46